createdAt,value
2023-03-26T00:01:39.479Z,100574.00
2023-03-26T00:04:07.530Z,100577.47
2023-03-26T00:06:39.964Z,100568.78
2023-03-26T00:09:13.296Z,100572.25
2023-03-26T00:11:41.720Z,100560.13
2023-03-26T00:14:13.599Z,100567.06
2023-03-26T00:16:44.591Z,100564.44
2023-03-26T00:19:12.709Z,100557.53
2023-03-26T00:21:39.983Z,100565.28
2023-03-26T00:24:15.015Z,100564.41
2023-03-26T00:26:43.747Z,100555.72
2023-03-26T00:29:13.638Z,100558.38
2023-03-26T00:31:41.130Z,100565.28
2023-03-26T00:34:10.401Z,100561.84
2023-03-26T00:36:37.366Z,100561.00
2023-03-26T00:39:06.337Z,100560.09
2023-03-26T00:41:37.317Z,100557.50
2023-03-26T00:44:04.568Z,100554.88
2023-03-26T00:46:32.607Z,100556.63
2023-03-26T00:49:01.696Z,100547.97
2023-03-26T00:51:29.623Z,100548.84
2023-03-26T00:53:57.992Z,100558.41
2023-03-26T00:56:26.329Z,100554.91
2023-03-26T00:58:53.406Z,100549.69
2023-03-26T01:01:28.069Z,100539.31
2023-03-26T01:04:19.594Z,100548.00
2023-03-26T01:06:46.955Z,100541.03
2023-03-26T01:09:18.698Z,100536.69
2023-03-26T01:11:47.611Z,100528.91
2023-03-26T01:14:21.381Z,100534.97
2023-03-26T01:16:52.671Z,100529.78
2023-03-26T01:19:33.893Z,100526.31
2023-03-26T01:22:01.819Z,100525.44
2023-03-26T01:24:28.896Z,100529.75
2023-03-26T01:27:12.077Z,100525.41
2023-03-26T01:29:48.068Z,100521.97
2023-03-26T01:32:46.384Z,100513.28
2023-03-26T01:35:24.262Z,100511.56
2023-03-26T01:38:11.043Z,100507.22
2023-03-26T01:40:54.568Z,100502.94
2023-03-26T01:43:32.380Z,100508.16
2023-03-26T01:46:03.751Z,100504.69
2023-03-26T01:48:37.046Z,100496.88
2023-03-26T01:51:06.249Z,100489.94
2023-03-26T01:53:37.976Z,100490.84
2023-03-26T01:56:35.796Z,100483.06
2023-03-26T01:59:29.054Z,100471.78
2023-03-26T02:02:13.579Z,100473.50
2023-03-26T02:04:55.750Z,100462.25
2023-03-26T02:07:44.718Z,100461.41
2023-03-26T02:10:26.615Z,100460.56
2023-03-26T02:12:54.385Z,100461.41
2023-03-26T02:15:22.129Z,100452.75
2023-03-26T02:17:49.656Z,100454.50
2023-03-26T02:20:18.896Z,100454.50
2023-03-26T02:22:47.233Z,100452.75
2023-03-26T02:25:19.177Z,100444.09
2023-03-26T02:27:49.545Z,100451.00
2023-03-26T02:30:27.401Z,100442.34
2023-03-26T02:32:57.883Z,100435.44
2023-03-26T02:35:25.143Z,100430.22
2023-03-26T02:37:52.286Z,100432.81
2023-03-26T02:40:21.218Z,100430.19
2023-03-26T02:42:48.733Z,100423.28
2023-03-26T02:45:16.433Z,100431.06
2023-03-26T02:47:43.474Z,100420.66
2023-03-26T02:50:11.858Z,100426.75
2023-03-26T02:52:39.138Z,100418.09
2023-03-26T02:55:06.181Z,100414.63
2023-03-26T02:57:33.234Z,100405.09
2023-03-26T03:00:00.115Z,100398.13
2023-03-26T03:02:29.385Z,100402.47
2023-03-26T03:05:01.468Z,100390.31
2023-03-26T03:07:29.188Z,100379.94
2023-03-26T03:09:56.503Z,100371.28
2023-03-26T03:12:23.386Z,100370.41
2023-03-26T03:14:50.486Z,100375.63
2023-03-26T03:17:19.782Z,100369.53
2023-03-26T03:19:46.945Z,100365.22
2023-03-26T03:22:14.694Z,100367.84
2023-03-26T03:24:43.693Z,100366.97
2023-03-26T03:27:10.898Z,100352.28
2023-03-26T03:29:37.734Z,100350.53
2023-03-26T03:32:05.336Z,100348.78
2023-03-26T03:34:32.647Z,100347.06
2023-03-26T03:36:59.852Z,100350.56
2023-03-26T03:39:27.140Z,100349.66
2023-03-26T03:41:54.265Z,100343.63
2023-03-26T03:44:21.457Z,100341.88
2023-03-26T03:46:49.294Z,100336.72
2023-03-26T03:49:16.082Z,100334.09
2023-03-26T03:51:42.907Z,100337.56
2023-03-26T03:54:09.975Z,100335.88
2023-03-26T03:56:38.002Z,100323.75
2023-03-26T03:59:05.474Z,100325.47
2023-03-26T04:01:33.235Z,100321.16
2023-03-26T04:04:00.493Z,100328.13
2023-03-26T04:06:30.148Z,100321.22
2023-03-26T04:08:57.577Z,100321.22
2023-03-26T04:11:24.532Z,100316.03
2023-03-26T04:13:52.098Z,100313.41
2023-03-26T04:16:19.676Z,100303.91
2023-03-26T04:18:46.973Z,100307.41
2023-03-26T04:21:15.776Z,100295.28
2023-03-26T04:23:43.838Z,100297.00
2023-03-26T04:26:16.768Z,100298.75
2023-03-26T04:28:50.457Z,100291.81
2023-03-26T04:31:24.448Z,100289.22
2023-03-26T04:33:56.364Z,100284.03
2023-03-26T04:36:27.359Z,100285.75
2023-03-26T04:38:55.546Z,100283.13
2023-03-26T04:41:22.612Z,100267.56
2023-03-26T04:43:50.666Z,100275.34
2023-03-26T04:46:26.755Z,100265.84
2023-03-26T04:48:54.690Z,100265.84
2023-03-26T04:51:25.813Z,100267.53
2023-03-26T04:53:59.251Z,100264.94
2023-03-26T04:56:51.462Z,100262.34
2023-03-26T04:59:30.041Z,100261.47
2023-03-26T05:01:59.350Z,100241.56
2023-03-26T05:04:29.414Z,100246.72
2023-03-26T05:06:58.482Z,100241.53
2023-03-26T05:09:27.303Z,100229.41
2023-03-26T05:11:55.659Z,100233.75
2023-03-26T05:14:22.979Z,100218.16
2023-03-26T05:16:53.192Z,100224.22
2023-03-26T05:19:22.392Z,100213.84
2023-03-26T05:21:49.715Z,100212.97
2023-03-26T05:24:17.066Z,100208.66
2023-03-26T05:26:45.084Z,100210.34
2023-03-26T05:29:17.969Z,100207.78
2023-03-26T05:31:44.764Z,100203.44
2023-03-26T05:34:12.079Z,100203.44
2023-03-26T05:36:39.169Z,100197.38
2023-03-26T05:39:06.158Z,100198.22
2023-03-26T05:41:34.100Z,100195.63
2023-03-26T05:44:01.261Z,100189.56
2023-03-26T05:46:33.090Z,100185.25
2023-03-26T05:49:02.773Z,100180.91
2023-03-26T05:51:29.696Z,100183.47
2023-03-26T05:53:56.405Z,100176.56
2023-03-26T05:56:23.574Z,100180.00
2023-03-26T05:58:52.077Z,100174.81
2023-03-26T06:01:19.780Z,100170.47
2023-03-26T06:03:48.574Z,100172.16
2023-03-26T06:06:18.718Z,100161.81
2023-03-26T06:09:01.013Z,100158.31
2023-03-26T06:11:31.482Z,100149.66
2023-03-26T06:13:59.170Z,100151.38
2023-03-26T06:16:28.372Z,100153.16
2023-03-26T06:18:57.621Z,100146.19
2023-03-26T06:21:26.326Z,100145.31
2023-03-26T06:23:53.967Z,100144.44
2023-03-26T06:26:21.821Z,100135.78
2023-03-26T06:28:49.124Z,100142.72
2023-03-26T06:31:17.322Z,100130.56
2023-03-26T06:33:44.064Z,100134.00
2023-03-26T06:36:12.862Z,100128.81
2023-03-26T06:38:41.990Z,100134.00
2023-03-26T06:41:08.774Z,100134.84
2023-03-26T06:43:36.343Z,100129.66
2023-03-26T06:46:04.354Z,100120.97
2023-03-26T06:48:32.001Z,100115.78
2023-03-26T06:50:59.071Z,100125.28
2023-03-26T06:53:26.685Z,100120.06
2023-03-26T06:55:54.517Z,100122.63
2023-03-26T06:58:22.374Z,100121.78
2023-03-26T07:00:54.283Z,100108.78
2023-03-26T07:03:25.469Z,100115.69
2023-03-26T07:05:52.616Z,100109.63
2023-03-26T07:08:20.179Z,100105.25
2023-03-26T07:10:47.409Z,100102.66
2023-03-26T07:13:14.176Z,100092.22
2023-03-26T07:15:41.424Z,100087.88
2023-03-26T07:18:08.982Z,100085.31
2023-03-26T07:20:36.549Z,100091.38
2023-03-26T07:23:04.344Z,100089.63
2023-03-26T07:25:31.949Z,100078.34
2023-03-26T07:28:18.150Z,100078.31
2023-03-26T07:31:16.400Z,100075.72
2023-03-26T07:34:04.580Z,100076.56
2023-03-26T07:36:47.216Z,100072.25
2023-03-26T07:39:45.558Z,100069.63
2023-03-26T07:42:23.424Z,100064.47
2023-03-26T07:45:02.473Z,100057.53
2023-03-26T07:47:36.826Z,100057.56
2023-03-26T07:50:04.985Z,100061.91
2023-03-26T07:52:32.708Z,100057.56
2023-03-26T07:54:59.788Z,100057.53
2023-03-26T07:57:52.516Z,100050.56
2023-03-26T08:00:29.809Z,100045.28
2023-03-26T08:03:28.949Z,100045.22
2023-03-26T08:05:59.429Z,100045.19
2023-03-26T08:08:45.873Z,100039.94
2023-03-26T08:11:25.332Z,100036.44
2023-03-26T08:14:02.877Z,100043.34
2023-03-26T08:16:48.771Z,100046.69
2023-03-26T08:26:27.543Z,100039.59
2023-03-26T08:29:04.078Z,100039.59
2023-03-26T08:31:34.243Z,100043.03
2023-03-26T08:34:02.184Z,100033.44
2023-03-26T08:36:29.551Z,100042.09
2023-03-26T08:38:59.799Z,100036.03
2023-03-26T08:41:49.215Z,100036.00
2023-03-26T08:44:41.477Z,100037.75
2023-03-26T08:47:21.228Z,100044.63
2023-03-26T08:50:20.621Z,100029.03
2023-03-26T08:53:16.036Z,100038.56
2023-03-26T08:55:55.281Z,100032.59
2023-03-26T08:58:44.430Z,100032.59
2023-03-26T09:01:32.093Z,100035.25
2023-03-26T09:04:08.381Z,100036.13
2023-03-26T09:06:53.697Z,100032.66
2023-03-26T09:09:45.999Z,100025.78
2023-03-26T09:12:40.883Z,100027.50
2023-03-26T09:15:44.898Z,100027.50
2023-03-26T09:18:33.294Z,100025.72
2023-03-26T09:21:38.305Z,100022.25
2023-03-26T09:24:30.424Z,100018.78
2023-03-26T09:27:15.819Z,100017.00
2023-03-26T09:30:07.460Z,100018.69
2023-03-26T09:33:29.303Z,100011.81
2023-03-26T09:36:30.269Z,100015.28
2023-03-26T09:39:30.967Z,100014.44
2023-03-26T09:42:09.356Z,100021.34
2023-03-26T09:45:19.123Z,100008.34
2023-03-26T09:48:18.888Z,100013.38
2023-03-26T09:51:13.574Z,99999.34
2023-03-26T09:54:00.051Z,100002.75
2023-03-26T09:56:41.490Z,99994.88
2023-03-26T09:59:14.842Z,100002.69
2023-03-26T10:01:59.997Z,100003.59
2023-03-26T10:04:40.598Z,100006.34
2023-03-26T10:07:38.878Z,99997.72
2023-03-26T10:10:25.434Z,100006.38
2023-03-26T10:13:14.082Z,99999.41
2023-03-26T10:16:08.115Z,100002.88
2023-03-26T10:18:59.511Z,99999.41
2023-03-26T10:21:41.705Z,100001.19
2023-03-26T10:24:33.422Z,99989.00
2023-03-26T10:27:11.178Z,99997.66
2023-03-26T10:29:37.907Z,99995.13
2023-03-26T10:32:30.461Z,100001.22
2023-03-26T10:35:35.176Z,99994.38
2023-03-26T10:38:18.238Z,99998.75
2023-03-26T10:41:16.218Z,99994.50
2023-03-26T10:44:31.763Z,99998.00
2023-03-26T10:47:34.939Z,99998.97
2023-03-26T10:50:27.595Z,99994.63
2023-03-26T10:53:27.405Z,99994.63
2023-03-26T10:56:02.908Z,99994.69
2023-03-26T10:58:48.453Z,100005.13
2023-03-26T11:01:36.328Z,100001.72
2023-03-26T11:04:41.986Z,99999.09
2023-03-26T11:07:26.414Z,99993.03
2023-03-26T11:10:11.285Z,99998.22
2023-03-26T11:13:07.962Z,99994.72
2023-03-26T11:15:50.103Z,99996.41
2023-03-26T11:18:28.277Z,99992.13
2023-03-26T11:21:30.214Z,99999.91
2023-03-26T11:24:14.157Z,99990.38
2023-03-26T11:26:55.860Z,99992.91
2023-03-26T11:29:44.644Z,99989.38
2023-03-26T11:32:26.077Z,99992.84
2023-03-26T11:35:03.920Z,99989.34
2023-03-26T11:37:52.325Z,99987.66
2023-03-26T11:40:32.706Z,99985.84
2023-03-26T11:43:04.919Z,99989.13
2023-03-26T11:45:37.349Z,99987.31
2023-03-26T11:48:17.668Z,99988.94
2023-03-26T11:50:48.166Z,99987.03
2023-03-26T11:53:22.480Z,99983.50
2023-03-26T11:56:22.385Z,99982.47
2023-03-26T11:59:01.205Z,99991.88
2023-03-26T12:01:41.098Z,99977.94
2023-03-26T12:04:15.546Z,99978.53
2023-03-26T12:06:51.712Z,99981.00
2023-03-26T12:09:19.704Z,99979.19
2023-03-26T12:11:48.078Z,99982.44
2023-03-26T12:14:26.757Z,99985.91
2023-03-26T12:17:31.582Z,99985.09
2023-03-26T12:20:01.361Z,99984.13
2023-03-26T12:22:36.130Z,99975.06
2023-03-26T12:25:18.393Z,99971.81
2023-03-26T12:27:49.766Z,99970.88
2023-03-26T12:30:26.302Z,99973.25
2023-03-26T12:33:00.879Z,99969.66
2023-03-26T12:35:31.460Z,99970.38
2023-03-26T12:38:33.424Z,99974.63
2023-03-26T12:44:46.457Z,99971.63
2023-03-26T12:44:54.771Z,99969.72
2023-03-26T12:47:59.834Z,99970.19
2023-03-26T12:50:14.780Z,99967.78
2023-03-26T12:53:00.333Z,99965.78
2023-03-26T12:55:53.131Z,99968.94
2023-03-26T12:58:47.965Z,99959.72
2023-03-26T13:01:33.405Z,99963.06
2023-03-26T13:04:18.874Z,99972.06
2023-03-26T13:07:00.978Z,99966.09
2023-03-26T13:09:58.126Z,99974.16
2023-03-26T13:12:50.521Z,99968.94
2023-03-26T13:15:34.646Z,99964.66
2023-03-26T13:18:08.551Z,99966.09
2023-03-26T13:20:53.754Z,99971.25
2023-03-26T13:23:46.809Z,99965.91
2023-03-26T13:26:41.019Z,99972.03
2023-03-26T13:29:26.317Z,99977.50
2023-03-26T13:32:18.326Z,99974.56
2023-03-26T13:35:07.617Z,99973.53
2023-03-26T13:37:51.254Z,99979.88
2023-03-26T13:40:36.476Z,99975.88
2023-03-26T13:43:22.999Z,99978.63
2023-03-26T13:46:01.742Z,99978.41
2023-03-26T13:48:59.988Z,99980.34
2023-03-26T13:51:37.488Z,99982.97
2023-03-26T13:54:18.711Z,99981.19
2023-03-26T13:57:33.504Z,99989.94
2023-03-26T14:00:23.499Z,99990.53
2023-03-26T14:02:57.979Z,99992.13
2023-03-26T14:05:38.599Z,99991.63
2023-03-26T14:08:41.786Z,99995.16
2023-03-26T14:11:21.779Z,99999.56
2023-03-26T14:14:04.169Z,100000.50
2023-03-26T14:16:41.640Z,100002.31
2023-03-26T14:19:30.881Z,99999.63
2023-03-26T14:22:24.185Z,99995.63
2023-03-26T14:24:53.785Z,100004.59
2023-03-26T14:27:26.434Z,100004.78
2023-03-26T14:30:27.540Z,100011.09
2023-03-26T14:33:28.075Z,100008.63
2023-03-26T14:36:21.573Z,100015.78
2023-03-26T14:39:13.993Z,100015.00
2023-03-26T14:41:52.030Z,100016.09
2023-03-26T14:44:56.481Z,100027.47
2023-03-26T14:47:26.741Z,100024.09
2023-03-26T14:50:07.000Z,100020.69
2023-03-26T14:52:37.233Z,100023.31
2023-03-26T14:55:18.636Z,100035.28
2023-03-26T14:58:18.132Z,100040.47
2023-03-26T15:00:47.757Z,100047.38
2023-03-26T15:03:15.886Z,100049.06
2023-03-26T15:06:16.957Z,100050.81
2023-03-26T15:09:09.130Z,100044.69
2023-03-26T15:12:23.840Z,100056.06
2023-03-26T15:14:51.676Z,100062.09
2023-03-26T15:17:56.079Z,100066.53
2023-03-26T15:20:52.402Z,100063.19
2023-03-26T15:23:22.253Z,100073.75
2023-03-26T15:26:09.853Z,100085.94
2023-03-26T15:28:58.572Z,100091.25
2023-03-26T15:31:37.060Z,100085.28
2023-03-26T15:34:30.402Z,100094.88
2023-03-26T15:37:35.170Z,100100.91
2023-03-26T15:46:33.586Z,100100.94
2023-03-26T15:49:45.038Z,100108.78
2023-03-26T15:52:31.593Z,100120.97
2023-03-26T15:55:20.697Z,100120.94
2023-03-26T15:58:06.424Z,100124.47
2023-03-26T16:00:44.334Z,100121.06
2023-03-26T16:03:11.207Z,100131.56
2023-03-26T16:05:38.349Z,100142.00
2023-03-26T16:08:38.215Z,100146.38
2023-03-26T16:11:12.647Z,100149.03
2023-03-26T16:13:40.898Z,100150.75
2023-03-26T16:16:24.104Z,100155.16
2023-03-26T16:19:18.121Z,100169.88
2023-03-26T16:21:56.139Z,100171.69
2023-03-26T16:24:26.577Z,100173.41
2023-03-26T16:27:12.825Z,100194.25
2023-03-26T16:30:19.495Z,100194.28
2023-03-26T16:32:56.296Z,100201.22
2023-03-26T16:35:39.753Z,100208.16
2023-03-26T16:38:18.609Z,100209.06
2023-03-26T16:41:00.989Z,100216.03
2023-03-26T16:43:46.170Z,100223.88
2023-03-26T16:46:27.988Z,100234.31
2023-03-26T16:49:02.552Z,100235.16
2023-03-26T16:51:50.803Z,100236.06
2023-03-26T16:54:52.441Z,100252.53
2023-03-26T16:57:27.026Z,100248.22
2023-03-26T17:00:18.152Z,100249.97
2023-03-26T17:03:15.656Z,100262.13
2023-03-26T17:05:56.470Z,100267.31
2023-03-26T17:08:54.578Z,100278.56
2023-03-26T17:11:38.381Z,100275.97
2023-03-26T17:14:15.875Z,100278.59
2023-03-26T17:16:48.433Z,100286.34
2023-03-26T17:19:39.593Z,100293.34
2023-03-26T17:22:24.873Z,100297.66
2023-03-26T17:24:58.939Z,100306.31
2023-03-26T17:27:33.955Z,100312.38
2023-03-26T17:30:08.721Z,100315.88
2023-03-26T17:32:56.725Z,100322.84
2023-03-26T17:35:51.248Z,100331.50
2023-03-26T17:38:20.033Z,100336.72
2023-03-26T17:40:49.132Z,100340.19
2023-03-26T17:43:51.678Z,100351.47
2023-03-26T17:46:37.608Z,100361.88
2023-03-26T17:49:27.164Z,100365.34
2023-03-26T17:52:19.860Z,100376.59
2023-03-26T17:54:50.171Z,100374.03
2023-03-26T17:57:40.318Z,100386.13
2023-03-26T18:00:18.414Z,100396.56
2023-03-26T18:02:57.376Z,100396.56
2023-03-26T18:05:31.467Z,100409.56
2023-03-26T18:08:32.480Z,100413.88
2023-03-26T18:11:13.605Z,100426.84
2023-03-26T18:14:18.438Z,100433.78
2023-03-26T18:16:51.515Z,100445.94
2023-03-26T18:19:22.615Z,100445.94
2023-03-26T18:21:52.043Z,100456.31
2023-03-26T18:24:41.110Z,100458.03
2023-03-26T18:27:19.015Z,100459.75
2023-03-26T18:30:01.383Z,100469.28
2023-03-26T18:32:33.660Z,100472.75
2023-03-26T18:35:14.312Z,100474.47
2023-03-26T18:37:44.690Z,100480.53
2023-03-26T18:40:18.968Z,100487.47
2023-03-26T18:42:56.607Z,100484.88
2023-03-26T18:45:37.475Z,100499.56
2023-03-26T18:48:11.808Z,100501.31
2023-03-26T18:50:41.551Z,100514.25
2023-03-26T18:53:28.534Z,100509.06
2023-03-26T18:55:57.828Z,100520.31
2023-03-26T18:58:26.158Z,100523.75
2023-03-26T19:00:58.406Z,100537.59
2023-03-26T19:03:26.820Z,100534.13
2023-03-26T19:05:56.143Z,100545.38
2023-03-26T19:08:25.448Z,100535.88
2023-03-26T19:10:54.459Z,100547.13
2023-03-26T19:13:22.322Z,100557.47
2023-03-26T19:15:54.666Z,100555.72
2023-03-26T19:18:28.345Z,100568.72
2023-03-26T19:20:59.429Z,100573.88
2023-03-26T19:23:32.677Z,100575.63
2023-03-26T19:26:02.544Z,100580.78
2023-03-26T19:28:37.330Z,100590.28
2023-03-26T19:31:12.476Z,100585.97
2023-03-26T19:33:42.113Z,100592.84
2023-03-26T19:36:19.463Z,100597.16
2023-03-26T19:38:52.066Z,100598.84
2023-03-26T19:41:44.639Z,100610.16
2023-03-26T19:44:22.586Z,100615.31
2023-03-26T19:46:53.712Z,100606.63
2023-03-26T19:49:28.002Z,100618.72
2023-03-26T19:52:19.365Z,100621.28
2023-03-26T19:54:59.713Z,100624.75
2023-03-26T19:57:32.663Z,100629.06
2023-03-26T20:00:00.716Z,100643.75
2023-03-26T20:02:29.508Z,100644.59
2023-03-26T20:04:57.118Z,100648.94
2023-03-26T20:07:34.970Z,100662.72
2023-03-26T20:10:05.594Z,100670.50
2023-03-26T20:12:33.088Z,100675.63
2023-03-26T20:15:01.592Z,100679.13
2023-03-26T20:17:31.121Z,100689.41
2023-03-26T20:19:59.617Z,100698.06
2023-03-26T20:22:26.873Z,100700.66
2023-03-26T20:24:54.743Z,100708.31
2023-03-26T20:27:22.476Z,100711.81
2023-03-26T20:29:49.665Z,100711.81
2023-03-26T20:32:23.142Z,100728.16
2023-03-26T20:34:52.726Z,100727.25
2023-03-26T20:37:20.200Z,100727.22
2023-03-26T20:39:47.295Z,100730.59
2023-03-26T20:42:16.100Z,100740.09
2023-03-26T20:44:43.536Z,100749.56
2023-03-26T20:47:11.663Z,100754.75
2023-03-26T20:49:41.779Z,100758.19
2023-03-26T20:52:13.540Z,100765.91
2023-03-26T20:54:41.980Z,100764.28
2023-03-26T20:57:11.855Z,100783.13
2023-03-26T20:59:38.771Z,100783.94
2023-03-26T21:02:06.433Z,100794.25
2023-03-26T21:04:38.627Z,100799.47
2023-03-26T21:07:21.452Z,100790.78
2023-03-26T21:09:49.628Z,100798.47
2023-03-26T21:12:31.263Z,100807.84
2023-03-26T21:14:58.973Z,100815.63
2023-03-26T21:17:27.190Z,100823.34
2023-03-26T21:20:00.444Z,100830.19
2023-03-26T21:22:38.652Z,100832.84
2023-03-26T21:25:20.630Z,100834.47
2023-03-26T21:28:04.036Z,100843.91
2023-03-26T21:30:31.385Z,100855.09
2023-03-26T21:32:59.736Z,100859.31
2023-03-26T21:35:27.344Z,100860.94
2023-03-26T21:37:57.660Z,100865.09
2023-03-26T21:40:25.002Z,100883.09
2023-03-26T21:42:54.268Z,100882.97
2023-03-26T21:45:22.465Z,100882.03
2023-03-26T21:47:50.246Z,100891.44
2023-03-26T21:50:21.750Z,100900.16
2023-03-26T21:52:51.731Z,100910.41
2023-03-26T21:55:21.968Z,100913.66
2023-03-26T21:57:55.126Z,100906.69
2023-03-26T22:00:33.538Z,100909.06
2023-03-26T22:03:13.166Z,100922.00
2023-03-26T22:05:40.621Z,100921.03
2023-03-26T22:08:40.636Z,100927.84
2023-03-26T22:11:09.905Z,100937.41
2023-03-26T22:13:38.611Z,100944.22
2023-03-26T22:16:08.825Z,100955.31
2023-03-26T22:18:37.681Z,100961.28
2023-03-26T22:21:06.052Z,100966.41
2023-03-26T22:23:36.171Z,100971.44
2023-03-26T22:26:05.154Z,100978.22
2023-03-26T22:28:32.109Z,100979.84
2023-03-26T22:30:59.396Z,100985.91
2023-03-26T22:33:26.655Z,100984.97
2023-03-26T22:35:55.866Z,100977.16
2023-03-26T22:38:23.796Z,100986.63
2023-03-26T22:40:58.591Z,100994.34
2023-03-26T22:43:26.186Z,100996.75
2023-03-26T22:45:55.030Z,100996.81
2023-03-26T22:48:23.772Z,101004.50
2023-03-26T22:51:05.659Z,101016.63
2023-03-26T22:53:33.120Z,101007.03
2023-03-26T22:56:00.922Z,101017.31
2023-03-26T22:58:30.313Z,101015.03
2023-03-26T23:01:08.222Z,101024.41
2023-03-26T23:03:37.128Z,101032.94
2023-03-26T23:06:07.951Z,101038.94
2023-03-26T23:08:37.917Z,101044.88
2023-03-26T23:11:09.841Z,101054.28
2023-03-26T23:13:36.845Z,101060.59
2023-03-26T23:16:05.166Z,101066.50
2023-03-26T23:18:33.074Z,101060.44
2023-03-26T23:21:00.132Z,101061.47
2023-03-26T23:23:30.871Z,101076.03
2023-03-26T23:26:01.365Z,101074.44
2023-03-26T23:28:32.004Z,101084.84
2023-03-26T23:31:02.780Z,101089.09
2023-03-26T23:33:34.344Z,101092.72
2023-03-26T23:36:04.224Z,101094.34
2023-03-26T23:38:43.858Z,101095.94
2023-03-26T23:41:15.975Z,101107.16
2023-03-26T23:43:53.604Z,101114.16
2023-03-26T23:46:34.563Z,101114.00
2023-03-26T23:49:03.551Z,101118.25
2023-03-26T23:51:31.898Z,101121.72
2023-03-26T23:53:59.909Z,101126.81
2023-03-26T23:56:30.334Z,101129.34
2023-03-26T23:58:58.344Z,101139.09
